DLH17C EDDN-LOWS
Flight info
| Callsign | DLH17C |
|---|---|
| Flight time | 0h 31m |
| Altitude | 21000 |
| Route | BOLSI1G BOLSI Y167 AKANU L603 OLETU T702 BADIT BADIT2R |
| Aircraft | A20N/M-SDE2E3FGHIRWXY/LB1 |
Departure
| Time | 2026-04-27 11:54 |
|---|---|
| Airport | Nuremberg Airport (EDDN) |
Arrival
| Time | 2026-04-27 12:26 |
|---|---|
| Airport | Salzburg Airport (LOWS) |
| Time | Latitude | Longitude | Altitude | Speed | Heading |
|---|---|---|---|---|---|
| 2026-04-27 11:11 | 49.49519 | 11.07791 | 1029 ft | 0 kts | 188° |
| 2026-04-27 11:42 | 49.49538 | 11.07795 | 1027 ft | 3 kts | 188° |
| 2026-04-27 11:42 | 49.49556 | 11.07798 | 1029 ft | 3 kts | 166° |
| 2026-04-27 11:42 | 49.49573 | 11.07784 | 1029 ft | 3 kts | 126° |
| 2026-04-27 11:42 | 49.49579 | 11.07762 | 1030 ft | 0 kts | 96° |
| 2026-04-27 11:48 | 49.49579 | 11.07775 | 1030 ft | 2 kts | 93° |
| 2026-04-27 11:49 | 49.49578 | 11.07796 | 1028 ft | 4 kts | 90° |
| 2026-04-27 11:49 | 49.49575 | 11.07875 | 1030 ft | 9 kts | 98° |
| 2026-04-27 11:49 | 49.49565 | 11.07990 | 1030 ft | 12 kts | 98° |
| 2026-04-27 11:49 | 49.49551 | 11.08132 | 1030 ft | 15 kts | 98° |
| 2026-04-27 11:50 | 49.49542 | 11.08294 | 1032 ft | 14 kts | 74° |
| 2026-04-27 11:50 | 49.49606 | 11.08380 | 1036 ft | 12 kts | 43° |
| 2026-04-27 11:50 | 49.49632 | 11.08425 | 1037 ft | 0 kts | 53° |
| 2026-04-27 11:50 | 49.49633 | 11.08436 | 1037 ft | 6 kts | 82° |
| 2026-04-27 11:51 | 49.49596 | 11.08648 | 1039 ft | 29 kts | 98° |
| 2026-04-27 11:51 | 49.49573 | 11.08866 | 1041 ft | 13 kts | 98° |
| 2026-04-27 11:51 | 49.49539 | 11.09214 | 1046 ft | 22 kts | 99° |
| 2026-04-27 11:52 | 49.49573 | 11.09450 | 1051 ft | 20 kts | 53° |
| 2026-04-27 11:52 | 49.49582 | 11.09467 | 1052 ft | 0 kts | 53° |
| 2026-04-27 11:53 | 49.49591 | 11.09485 | 1052 ft | 8 kts | 47° |
| 2026-04-27 11:53 | 49.49678 | 11.09538 | 1055 ft | 19 kts | 331° |
| 2026-04-27 11:53 | 49.49701 | 11.09474 | 1054 ft | 12 kts | 283° |
| 2026-04-27 11:53 | 49.49747 | 11.09038 | 1047 ft | 76 kts | 278° |
| 2026-04-27 11:54 | 49.49860 | 11.07877 | 1032 ft | 141 kts | 278° |
| 2026-04-27 11:54 | 49.50039 | 11.06268 | 1353 ft | 159 kts | 281° |
| 2026-04-27 11:54 | 49.50254 | 11.04561 | 1955 ft | 166 kts | 282° |
| 2026-04-27 11:54 | 49.50490 | 11.02775 | 2595 ft | 174 kts | 283° |
| 2026-04-27 11:55 | 49.50715 | 11.00834 | 3149 ft | 201 kts | 278° |
| 2026-04-27 11:55 | 49.50896 | 10.98495 | 3515 ft | 239 kts | 277° |
| 2026-04-27 11:55 | 49.51108 | 10.95837 | 4271 ft | 257 kts | 277° |
| 2026-04-27 11:55 | 49.51168 | 10.93053 | 5290 ft | 264 kts | 262° |
| 2026-04-27 11:56 | 49.50630 | 10.90325 | 6200 ft | 270 kts | 248° |
| 2026-04-27 11:56 | 49.49847 | 10.87704 | 6851 ft | 274 kts | 245° |
| 2026-04-27 11:56 | 49.48999 | 10.85036 | 7156 ft | 277 kts | 245° |
| 2026-04-27 11:56 | 49.48150 | 10.82366 | 7222 ft | 279 kts | 245° |
| 2026-04-27 11:57 | 49.47256 | 10.79748 | 7215 ft | 279 kts | 238° |
| 2026-04-27 11:57 | 49.45939 | 10.77547 | 7221 ft | 280 kts | 216° |
| 2026-04-27 11:57 | 49.44170 | 10.76376 | 7401 ft | 282 kts | 190° |
| 2026-04-27 11:57 | 49.42187 | 10.76122 | 8199 ft | 289 kts | 182° |
| 2026-04-27 11:58 | 49.40172 | 10.76084 | 9268 ft | 290 kts | 180° |
| 2026-04-27 11:58 | 49.38827 | 10.76076 | 9935 ft | 291 kts | 180° |
| 2026-04-27 11:58 | 49.36070 | 10.76051 | 10890 ft | 310 kts | 181° |
| 2026-04-27 11:58 | 49.34598 | 10.76031 | 11155 ft | 325 kts | 181° |
| 2026-04-27 11:59 | 49.32256 | 10.75997 | 11516 ft | 347 kts | 181° |
| 2026-04-27 11:59 | 49.29777 | 10.75956 | 12042 ft | 363 kts | 181° |
| 2026-04-27 11:59 | 49.27217 | 10.75916 | 12820 ft | 369 kts | 181° |
| 2026-04-27 11:59 | 49.24635 | 10.75842 | 13641 ft | 374 kts | 185° |
| 2026-04-27 12:00 | 49.22072 | 10.75233 | 14437 ft | 377 kts | 195° |
| 2026-04-27 12:00 | 49.19531 | 10.74131 | 15206 ft | 380 kts | 200° |
| 2026-04-27 12:00 | 49.17036 | 10.72788 | 15971 ft | 383 kts | 202° |
| 2026-04-27 12:00 | 49.14531 | 10.71322 | 16755 ft | 387 kts | 203° |
| 2026-04-27 12:01 | 49.12042 | 10.69840 | 17502 ft | 391 kts | 203° |
| 2026-04-27 12:01 | 49.09421 | 10.68614 | 18243 ft | 397 kts | 194° |
| 2026-04-27 12:01 | 49.06642 | 10.68280 | 18891 ft | 406 kts | 179° |
| 2026-04-27 12:01 | 49.03839 | 10.69169 | 19480 ft | 416 kts | 161° |
| 2026-04-27 12:02 | 49.01324 | 10.71321 | 20058 ft | 424 kts | 146° |
| 2026-04-27 12:02 | 48.99004 | 10.74157 | 20633 ft | 429 kts | 140° |
| 2026-04-27 12:02 | 48.96798 | 10.77311 | 21086 ft | 433 kts | 137° |
| 2026-04-27 12:02 | 48.94678 | 10.80552 | 21232 ft | 443 kts | 136° |
| 2026-04-27 12:03 | 48.92461 | 10.83992 | 21238 ft | 460 kts | 136° |
| 2026-04-27 12:03 | 48.90208 | 10.87456 | 21236 ft | 466 kts | 136° |
| 2026-04-27 12:03 | 48.87920 | 10.90919 | 21227 ft | 466 kts | 136° |
| 2026-04-27 12:03 | 48.85590 | 10.94388 | 21223 ft | 466 kts | 137° |
| 2026-04-27 12:04 | 48.83287 | 10.97778 | 21214 ft | 466 kts | 137° |
| 2026-04-27 12:04 | 48.80947 | 11.01195 | 21213 ft | 466 kts | 137° |
| 2026-04-27 12:04 | 48.78597 | 11.04612 | 21212 ft | 466 kts | 137° |
| 2026-04-27 12:04 | 48.76253 | 11.08010 | 21216 ft | 466 kts | 137° |
| 2026-04-27 12:05 | 48.73900 | 11.11412 | 21209 ft | 466 kts | 137° |
| 2026-04-27 12:05 | 48.71572 | 11.14773 | 21213 ft | 466 kts | 137° |
| 2026-04-27 12:05 | 48.69210 | 11.18178 | 21211 ft | 466 kts | 137° |
| 2026-04-27 12:05 | 48.66882 | 11.21529 | 21211 ft | 466 kts | 137° |
| 2026-04-27 12:06 | 48.64618 | 11.25068 | 21207 ft | 466 kts | 131° |
| 2026-04-27 12:06 | 48.62538 | 11.28874 | 21212 ft | 466 kts | 129° |
| 2026-04-27 12:06 | 48.60560 | 11.32686 | 21209 ft | 466 kts | 128° |
| 2026-04-27 12:06 | 48.58600 | 11.36593 | 21210 ft | 466 kts | 127° |
| 2026-04-27 12:07 | 48.56659 | 11.40519 | 21206 ft | 466 kts | 127° |
| 2026-04-27 12:07 | 48.54720 | 11.44454 | 21186 ft | 466 kts | 127° |
| 2026-04-27 12:07 | 48.52785 | 11.48371 | 20930 ft | 464 kts | 127° |
| 2026-04-27 12:07 | 48.50853 | 11.52262 | 20706 ft | 462 kts | 127° |
| 2026-04-27 12:08 | 48.48921 | 11.56138 | 20258 ft | 460 kts | 127° |
| 2026-04-27 12:08 | 48.47194 | 11.60111 | 19998 ft | 458 kts | 118° |
| 2026-04-27 12:08 | 48.45838 | 11.64434 | 19743 ft | 456 kts | 113° |
| 2026-04-27 12:08 | 48.44630 | 11.68850 | 19389 ft | 453 kts | 111° |
| 2026-04-27 12:09 | 48.43525 | 11.73281 | 19031 ft | 450 kts | 109° |
| 2026-04-27 12:09 | 48.42474 | 11.77705 | 18606 ft | 447 kts | 109° |
| 2026-04-27 12:09 | 48.41440 | 11.82114 | 18147 ft | 444 kts | 109° |
| 2026-04-27 12:09 | 48.40412 | 11.86482 | 17659 ft | 441 kts | 109° |
| 2026-04-27 12:10 | 48.39396 | 11.90761 | 17193 ft | 436 kts | 109° |
| 2026-04-27 12:10 | 48.38365 | 11.95053 | 16718 ft | 433 kts | 109° |
| 2026-04-27 12:10 | 48.37336 | 11.99301 | 16260 ft | 429 kts | 110° |
| 2026-04-27 12:10 | 48.36311 | 12.03508 | 15817 ft | 426 kts | 110° |
| 2026-04-27 12:11 | 48.35299 | 12.07640 | 15367 ft | 423 kts | 110° |
| 2026-04-27 12:11 | 48.34284 | 12.11781 | 14926 ft | 419 kts | 110° |
| 2026-04-27 12:11 | 48.33279 | 12.15872 | 14488 ft | 416 kts | 110° |
| 2026-04-27 12:11 | 48.32279 | 12.19941 | 14058 ft | 413 kts | 110° |
| 2026-04-27 12:12 | 48.31282 | 12.23986 | 13581 ft | 410 kts | 110° |
| 2026-04-27 12:12 | 48.30309 | 12.27929 | 13121 ft | 407 kts | 110° |
| 2026-04-27 12:12 | 48.29321 | 12.31914 | 12655 ft | 404 kts | 110° |
| 2026-04-27 12:12 | 48.28344 | 12.35849 | 12187 ft | 401 kts | 110° |
| 2026-04-27 12:13 | 48.27369 | 12.39778 | 11738 ft | 399 kts | 110° |
| 2026-04-27 12:13 | 48.26399 | 12.43684 | 11284 ft | 397 kts | 110° |
| 2026-04-27 12:13 | 48.25435 | 12.47558 | 10847 ft | 392 kts | 110° |
| 2026-04-27 12:13 | 48.24505 | 12.51285 | 10412 ft | 381 kts | 110° |
| 2026-04-27 12:14 | 48.23582 | 12.54980 | 9968 ft | 372 kts | 110° |
| 2026-04-27 12:14 | 48.22685 | 12.58565 | 9476 ft | 361 kts | 110° |
| 2026-04-27 12:14 | 48.21814 | 12.62047 | 9016 ft | 352 kts | 110° |
| 2026-04-27 12:14 | 48.20965 | 12.65421 | 8530 ft | 336 kts | 110° |
| 2026-04-27 12:15 | 48.20175 | 12.68572 | 8253 ft | 315 kts | 110° |
| 2026-04-27 12:15 | 48.19427 | 12.71550 | 8107 ft | 297 kts | 110° |
| 2026-04-27 12:15 | 48.18707 | 12.74415 | 7975 ft | 290 kts | 111° |
| 2026-04-27 12:15 | 48.17993 | 12.77247 | 7852 ft | 290 kts | 111° |
| 2026-04-27 12:16 | 48.17248 | 12.80063 | 7735 ft | 290 kts | 116° |
| 2026-04-27 12:16 | 48.16113 | 12.82545 | 7537 ft | 288 kts | 137° |
| 2026-04-27 12:16 | 48.14465 | 12.84092 | 7300 ft | 282 kts | 161° |
| 2026-04-27 12:16 | 48.12590 | 12.84922 | 7164 ft | 281 kts | 168° |
| 2026-04-27 12:17 | 48.10680 | 12.85600 | 6913 ft | 281 kts | 169° |
| 2026-04-27 12:17 | 48.08797 | 12.86250 | 6669 ft | 280 kts | 169° |
| 2026-04-27 12:17 | 48.06896 | 12.86913 | 6487 ft | 279 kts | 169° |
| 2026-04-27 12:17 | 48.05011 | 12.87582 | 6345 ft | 277 kts | 168° |
| 2026-04-27 12:18 | 48.03130 | 12.88260 | 6206 ft | 277 kts | 166° |
| 2026-04-27 12:18 | 48.01366 | 12.89347 | 6071 ft | 279 kts | 148° |
| 2026-04-27 12:18 | 48.00010 | 12.91408 | 5952 ft | 280 kts | 122° |
| 2026-04-27 12:18 | 47.99256 | 12.94078 | 5827 ft | 280 kts | 108° |
| 2026-04-27 12:19 | 47.98702 | 12.96878 | 5674 ft | 279 kts | 105° |
| 2026-04-27 12:19 | 47.97966 | 12.99461 | 5464 ft | 271 kts | 124° |
| 2026-04-27 12:19 | 47.96618 | 13.01386 | 5147 ft | 271 kts | 153° |
| 2026-04-27 12:19 | 47.94859 | 13.02309 | 4994 ft | 261 kts | 167° |
| 2026-04-27 12:20 | 47.93139 | 13.02853 | 4998 ft | 240 kts | 169° |
| 2026-04-27 12:20 | 47.91607 | 13.03301 | 4988 ft | 214 kts | 169° |
| 2026-04-27 12:20 | 47.90185 | 13.03709 | 4999 ft | 206 kts | 169° |
| 2026-04-27 12:20 | 47.88782 | 13.04123 | 4990 ft | 205 kts | 168° |
| 2026-04-27 12:21 | 47.87432 | 13.04527 | 4970 ft | 187 kts | 168° |
| 2026-04-27 12:21 | 47.86208 | 13.04897 | 4908 ft | 172 kts | 168° |
| 2026-04-27 12:21 | 47.85069 | 13.05246 | 4723 ft | 163 kts | 168° |
| 2026-04-27 12:21 | 47.84004 | 13.05571 | 4647 ft | 150 kts | 168° |
| 2026-04-27 12:22 | 47.83003 | 13.05873 | 4383 ft | 147 kts | 168° |
| 2026-04-27 12:22 | 47.82012 | 13.06174 | 4181 ft | 144 kts | 167° |
| 2026-04-27 12:22 | 47.81038 | 13.06475 | 4008 ft | 144 kts | 168° |
| 2026-04-27 12:22 | 47.80044 | 13.06779 | 3827 ft | 144 kts | 167° |
| 2026-04-27 12:23 | 47.79027 | 13.07083 | 3664 ft | 157 kts | 169° |
| 2026-04-27 12:23 | 47.77968 | 13.07389 | 3636 ft | 152 kts | 168° |
| 2026-04-27 12:23 | 47.76893 | 13.07678 | 3398 ft | 164 kts | 170° |
| 2026-04-27 12:23 | 47.75724 | 13.07852 | 3161 ft | 171 kts | 184° |
| 2026-04-27 12:24 | 47.74617 | 13.07316 | 2933 ft | 168 kts | 218° |
| 2026-04-27 12:24 | 47.74042 | 13.05904 | 2728 ft | 161 kts | 268° |
| 2026-04-27 12:24 | 47.74371 | 13.04446 | 2536 ft | 149 kts | 316° |
| 2026-04-27 12:24 | 47.75065 | 13.03336 | 2402 ft | 146 kts | 318° |
| 2026-04-27 12:25 | 47.75871 | 13.02442 | 2233 ft | 145 kts | 332° |
| 2026-04-27 12:25 | 47.76829 | 13.01876 | 1955 ft | 152 kts | 345° |
| 2026-04-27 12:25 | 47.77839 | 13.01378 | 1706 ft | 154 kts | 338° |
| 2026-04-27 12:25 | 47.78816 | 13.00723 | 1455 ft | 153 kts | 335° |
| 2026-04-27 12:26 | 47.79739 | 13.00145 | 1425 ft | 134 kts | 345° |
| 2026-04-27 12:26 | 47.80252 | 12.99803 | 1423 ft | 39 kts | 309° |
| 2026-04-27 12:26 | 47.80258 | 12.99646 | 1427 ft | 10 kts | 238° |
| 2026-04-27 12:26 | 47.80213 | 12.99601 | 1427 ft | 7 kts | 191° |
| 2026-04-27 12:27 | 47.80187 | 12.99601 | 1427 ft | 0 kts | 171° |
| 2026-04-27 12:30 | 47.80177 | 12.99605 | 1426 ft | 1 kts | 168° |
| 2026-04-27 12:30 | 47.80140 | 12.99623 | 1426 ft | 10 kts | 159° |
| 2026-04-27 12:31 | 47.80051 | 12.99677 | 1426 ft | 17 kts | 158° |
| 2026-04-27 12:31 | 47.79922 | 12.99758 | 1424 ft | 24 kts | 158° |
| 2026-04-27 12:31 | 47.79756 | 12.99865 | 1425 ft | 28 kts | 157° |
| 2026-04-27 12:31 | 47.79571 | 12.99981 | 1426 ft | 19 kts | 157° |
| 2026-04-27 12:32 | 47.79459 | 13.00054 | 1425 ft | 8 kts | 156° |
| 2026-04-27 12:32 | 47.79396 | 13.00086 | 1425 ft | 13 kts | 178° |
| 2026-04-27 12:32 | 47.79325 | 12.99983 | 1425 ft | 13 kts | 229° |
| 2026-04-27 12:32 | 47.79227 | 12.99989 | 1425 ft | 13 kts | 151° |
| 2026-04-27 12:33 | 47.79190 | 12.99993 | 1425 ft | 2 kts | 256° |
| 2026-04-27 12:33 | 47.79192 | 12.99940 | 1425 ft | 8 kts | 279° |
| 2026-04-27 12:33 | 47.79197 | 12.99906 | 1425 ft | 0 kts | 285° |